sensor_id;sensor_type;location;lat;lon;timestamp;temperature;humidity
19906;DHT22;10115;50.906;4.438;2022-07-22T00:02:10;16.40;99.90
19906;DHT22;10115;50.906;4.438;2022-07-22T00:04:36;16.30;99.90
19906;DHT22;10115;50.906;4.438;2022-07-22T00:07:02;16.30;99.90
19906;DHT22;10115;50.906;4.438;2022-07-22T00:09:27;16.30;99.90
19906;DHT22;10115;50.906;4.438;2022-07-22T00:11:53;16.20;99.90
19906;DHT22;10115;50.906;4.438;2022-07-22T00:14:19;16.20;99.90
19906;DHT22;10115;50.906;4.438;2022-07-22T00:16:44;16.10;99.90
19906;DHT22;10115;50.906;4.438;2022-07-22T00:19:10;16.20;99.90
19906;DHT22;10115;50.906;4.438;2022-07-22T00:21:36;16.20;99.90
19906;DHT22;10115;50.906;4.438;2022-07-22T00:24:03;16.10;99.90
19906;DHT22;10115;50.906;4.438;2022-07-22T00:26:28;16.10;99.90
19906;DHT22;10115;50.906;4.438;2022-07-22T00:28:54;16.00;99.90
19906;DHT22;10115;50.906;4.438;2022-07-22T00:31:20;15.90;99.90
19906;DHT22;10115;50.906;4.438;2022-07-22T00:33:46;15.90;99.90
19906;DHT22;10115;50.906;4.438;2022-07-22T00:36:12;15.80;99.90
19906;DHT22;10115;50.906;4.438;2022-07-22T00:38:38;15.70;99.90
19906;DHT22;10115;50.906;4.438;2022-07-22T00:41:04;15.70;99.90
19906;DHT22;10115;50.906;4.438;2022-07-22T00:43:55;15.70;99.90
19906;DHT22;10115;50.906;4.438;2022-07-22T00:46:23;15.60;99.90
19906;DHT22;10115;50.906;4.438;2022-07-22T00:48:49;15.60;99.90
19906;DHT22;10115;50.906;4.438;2022-07-22T00:51:16;15.60;99.90
19906;DHT22;10115;50.906;4.438;2022-07-22T00:53:43;15.60;99.90
19906;DHT22;10115;50.906;4.438;2022-07-22T00:56:10;15.70;99.90
19906;DHT22;10115;50.906;4.438;2022-07-22T00:58:35;15.70;99.90
19906;DHT22;10115;50.906;4.438;2022-07-22T01:01:01;15.60;99.90
19906;DHT22;10115;50.906;4.438;2022-07-22T01:03:27;15.50;99.90
19906;DHT22;10115;50.906;4.438;2022-07-22T01:05:53;15.60;99.90
19906;DHT22;10115;50.906;4.438;2022-07-22T01:08:18;15.60;99.90
19906;DHT22;10115;50.906;4.438;2022-07-22T01:10:44;15.70;99.90
19906;DHT22;10115;50.906;4.438;2022-07-22T01:13:10;15.70;99.90
19906;DHT22;10115;50.906;4.438;2022-07-22T01:15:35;15.60;99.90
19906;DHT22;10115;50.906;4.438;2022-07-22T01:18:01;15.60;99.90
19906;DHT22;10115;50.906;4.438;2022-07-22T01:20:27;15.60;99.90
19906;DHT22;10115;50.906;4.438;2022-07-22T01:22:53;15.50;99.90
19906;DHT22;10115;50.906;4.438;2022-07-22T01:25:19;15.60;99.90
19906;DHT22;10115;50.906;4.438;2022-07-22T01:27:44;15.60;99.90
19906;DHT22;10115;50.906;4.438;2022-07-22T01:30:10;15.50;99.90
19906;DHT22;10115;50.906;4.438;2022-07-22T01:32:36;15.50;99.90
19906;DHT22;10115;50.906;4.438;2022-07-22T01:35:02;15.50;99.90
19906;DHT22;10115;50.906;4.438;2022-07-22T01:37:28;15.50;99.90
19906;DHT22;10115;50.906;4.438;2022-07-22T01:39:54;15.40;99.90
19906;DHT22;10115;50.906;4.438;2022-07-22T01:42:20;15.30;99.90
19906;DHT22;10115;50.906;4.438;2022-07-22T01:44:45;15.30;99.90
19906;DHT22;10115;50.906;4.438;2022-07-22T01:47:11;15.30;99.90
19906;DHT22;10115;50.906;4.438;2022-07-22T01:49:37;15.20;99.90
19906;DHT22;10115;50.906;4.438;2022-07-22T01:52:05;15.30;99.90
19906;DHT22;10115;50.906;4.438;2022-07-22T01:54:31;15.40;99.90
19906;DHT22;10115;50.906;4.438;2022-07-22T01:56:57;15.30;99.90
19906;DHT22;10115;50.906;4.438;2022-07-22T01:59:22;15.40;99.90
19906;DHT22;10115;50.906;4.438;2022-07-22T02:01:48;15.40;99.90
19906;DHT22;10115;50.906;4.438;2022-07-22T02:04:14;15.30;99.90
19906;DHT22;10115;50.906;4.438;2022-07-22T02:06:40;15.20;99.90
19906;DHT22;10115;50.906;4.438;2022-07-22T02:09:06;15.20;99.90
19906;DHT22;10115;50.906;4.438;2022-07-22T02:11:31;15.10;99.90
19906;DHT22;10115;50.906;4.438;2022-07-22T02:13:57;15.10;99.90
19906;DHT22;10115;50.906;4.438;2022-07-22T02:16:23;15.10;99.90
19906;DHT22;10115;50.906;4.438;2022-07-22T02:18:48;15.00;99.90
19906;DHT22;10115;50.906;4.438;2022-07-22T02:21:14;15.10;99.90
19906;DHT22;10115;50.906;4.438;2022-07-22T02:23:40;15.10;99.90
19906;DHT22;10115;50.906;4.438;2022-07-22T02:26:05;15.10;99.90
19906;DHT22;10115;50.906;4.438;2022-07-22T02:28:31;15.10;99.90
19906;DHT22;10115;50.906;4.438;2022-07-22T02:30:57;15.00;99.90
19906;DHT22;10115;50.906;4.438;2022-07-22T02:33:23;15.00;99.90
19906;DHT22;10115;50.906;4.438;2022-07-22T02:35:48;15.00;99.90
19906;DHT22;10115;50.906;4.438;2022-07-22T02:38:14;15.00;99.90
19906;DHT22;10115;50.906;4.438;2022-07-22T02:40:39;14.90;99.90
19906;DHT22;10115;50.906;4.438;2022-07-22T02:43:05;14.90;99.90
19906;DHT22;10115;50.906;4.438;2022-07-22T02:45:32;14.90;99.90
19906;DHT22;10115;50.906;4.438;2022-07-22T02:47:58;14.80;99.90
19906;DHT22;10115;50.906;4.438;2022-07-22T02:50:24;14.80;99.90
19906;DHT22;10115;50.906;4.438;2022-07-22T02:52:50;14.80;99.90
19906;DHT22;10115;50.906;4.438;2022-07-22T02:55:16;14.80;99.90
19906;DHT22;10115;50.906;4.438;2022-07-22T02:57:42;14.80;99.90
19906;DHT22;10115;50.906;4.438;2022-07-22T03:00:10;14.80;99.90
19906;DHT22;10115;50.906;4.438;2022-07-22T03:02:37;14.80;99.90
19906;DHT22;10115;50.906;4.438;2022-07-22T03:05:03;14.90;99.90
19906;DHT22;10115;50.906;4.438;2022-07-22T03:07:29;14.80;99.90
19906;DHT22;10115;50.906;4.438;2022-07-22T03:09:55;14.70;99.90
19906;DHT22;10115;50.906;4.438;2022-07-22T03:12:21;14.80;99.90
19906;DHT22;10115;50.906;4.438;2022-07-22T03:14:46;14.70;99.90
19906;DHT22;10115;50.906;4.438;2022-07-22T03:17:12;14.80;99.90
19906;DHT22;10115;50.906;4.438;2022-07-22T03:19:38;14.90;99.90
19906;DHT22;10115;50.906;4.438;2022-07-22T03:22:03;15.00;99.90
19906;DHT22;10115;50.906;4.438;2022-07-22T03:24:29;14.90;99.90
19906;DHT22;10115;50.906;4.438;2022-07-22T03:26:56;14.90;99.90
19906;DHT22;10115;50.906;4.438;2022-07-22T03:29:22;14.90;99.90
19906;DHT22;10115;50.906;4.438;2022-07-22T03:31:47;14.80;99.90
19906;DHT22;10115;50.906;4.438;2022-07-22T03:34:13;14.90;99.90
19906;DHT22;10115;50.906;4.438;2022-07-22T03:36:39;14.90;99.90
19906;DHT22;10115;50.906;4.438;2022-07-22T03:39:05;14.80;99.90
19906;DHT22;10115;50.906;4.438;2022-07-22T03:41:31;14.70;99.90
19906;DHT22;10115;50.906;4.438;2022-07-22T03:43:56;14.70;99.90
19906;DHT22;10115;50.906;4.438;2022-07-22T03:46:22;14.70;99.90
19906;DHT22;10115;50.906;4.438;2022-07-22T03:48:48;14.70;99.90
19906;DHT22;10115;50.906;4.438;2022-07-22T03:51:13;14.80;99.90
19906;DHT22;10115;50.906;4.438;2022-07-22T03:53:39;14.80;99.90
19906;DHT22;10115;50.906;4.438;2022-07-22T03:56:05;14.80;99.90
19906;DHT22;10115;50.906;4.438;2022-07-22T03:58:31;14.70;99.90
19906;DHT22;10115;50.906;4.438;2022-07-22T04:00:57;14.70;99.90
19906;DHT22;10115;50.906;4.438;2022-07-22T04:03:23;14.80;99.90
19906;DHT22;10115;50.906;4.438;2022-07-22T04:05:48;14.80;99.90
19906;DHT22;10115;50.906;4.438;2022-07-22T04:08:17;14.70;99.90
19906;DHT22;10115;50.906;4.438;2022-07-22T04:10:43;14.70;99.90
19906;DHT22;10115;50.906;4.438;2022-07-22T04:13:09;14.70;99.90
19906;DHT22;10115;50.906;4.438;2022-07-22T04:15:35;14.70;99.90
19906;DHT22;10115;50.906;4.438;2022-07-22T04:18:01;14.90;99.90
19906;DHT22;10115;50.906;4.438;2022-07-22T04:20:26;14.90;99.90
19906;DHT22;10115;50.906;4.438;2022-07-22T04:22:52;14.90;99.90
19906;DHT22;10115;50.906;4.438;2022-07-22T04:25:18;14.90;99.90
19906;DHT22;10115;50.906;4.438;2022-07-22T04:27:44;14.90;99.90
19906;DHT22;10115;50.906;4.438;2022-07-22T04:30:10;14.80;99.90
19906;DHT22;10115;50.906;4.438;2022-07-22T04:32:36;14.80;99.90
19906;DHT22;10115;50.906;4.438;2022-07-22T04:35:01;14.90;99.90
19906;DHT22;10115;50.906;4.438;2022-07-22T04:37:27;15.00;99.90
19906;DHT22;10115;50.906;4.438;2022-07-22T04:39:53;15.10;99.90
19906;DHT22;10115;50.906;4.438;2022-07-22T04:42:18;15.20;99.90
19906;DHT22;10115;50.906;4.438;2022-07-22T04:44:44;15.20;99.90
19906;DHT22;10115;50.906;4.438;2022-07-22T04:47:10;15.20;99.90
19906;DHT22;10115;50.906;4.438;2022-07-22T04:49:36;15.30;99.90
19906;DHT22;10115;50.906;4.438;2022-07-22T04:52:02;15.30;99.90
19906;DHT22;10115;50.906;4.438;2022-07-22T04:54:28;15.30;99.90
19906;DHT22;10115;50.906;4.438;2022-07-22T04:56:54;15.40;99.90
19906;DHT22;10115;50.906;4.438;2022-07-22T04:59:19;15.60;99.90
19906;DHT22;10115;50.906;4.438;2022-07-22T05:01:45;15.70;99.90
19906;DHT22;10115;50.906;4.438;2022-07-22T05:04:10;15.80;99.90
19906;DHT22;10115;50.906;4.438;2022-07-22T05:06:36;15.90;99.90
19906;DHT22;10115;50.906;4.438;2022-07-22T05:09:02;16.10;99.90
19906;DHT22;10115;50.906;4.438;2022-07-22T05:11:28;16.00;99.90
19906;DHT22;10115;50.906;4.438;2022-07-22T05:13:53;16.20;99.90
19906;DHT22;10115;50.906;4.438;2022-07-22T05:16:19;16.20;99.90
19906;DHT22;10115;50.906;4.438;2022-07-22T05:18:45;16.30;99.90
19906;DHT22;10115;50.906;4.438;2022-07-22T05:21:10;16.50;99.90
19906;DHT22;10115;50.906;4.438;2022-07-22T05:23:36;16.60;99.90
19906;DHT22;10115;50.906;4.438;2022-07-22T05:26:04;16.50;99.90
19906;DHT22;10115;50.906;4.438;2022-07-22T05:28:30;16.60;99.90
19906;DHT22;10115;50.906;4.438;2022-07-22T05:30:56;16.60;99.90
19906;DHT22;10115;50.906;4.438;2022-07-22T05:33:21;16.50;99.90
19906;DHT22;10115;50.906;4.438;2022-07-22T05:35:47;16.50;99.90
19906;DHT22;10115;50.906;4.438;2022-07-22T05:38:13;16.50;99.90
19906;DHT22;10115;50.906;4.438;2022-07-22T05:40:39;16.60;99.90
19906;DHT22;10115;50.906;4.438;2022-07-22T05:43:04;16.40;99.90
19906;DHT22;10115;50.906;4.438;2022-07-22T05:45:30;16.60;99.90
19906;DHT22;10115;50.906;4.438;2022-07-22T05:47:56;16.70;99.90
19906;DHT22;10115;50.906;4.438;2022-07-22T05:50:21;16.80;99.90
19906;DHT22;10115;50.906;4.438;2022-07-22T05:52:47;16.90;99.90
19906;DHT22;10115;50.906;4.438;2022-07-22T05:55:13;17.00;99.90
19906;DHT22;10115;50.906;4.438;2022-07-22T05:57:38;17.20;99.90
19906;DHT22;10115;50.906;4.438;2022-07-22T06:00:05;17.10;99.90
19906;DHT22;10115;50.906;4.438;2022-07-22T06:02:32;17.20;99.90
19906;DHT22;10115;50.906;4.438;2022-07-22T06:04:57;17.40;99.90
19906;DHT22;10115;50.906;4.438;2022-07-22T06:07:26;17.30;99.90
19906;DHT22;10115;50.906;4.438;2022-07-22T06:09:51;17.20;99.90
19906;DHT22;10115;50.906;4.438;2022-07-22T06:12:17;17.30;99.90
19906;DHT22;10115;50.906;4.438;2022-07-22T06:14:43;17.40;99.90
19906;DHT22;10115;50.906;4.438;2022-07-22T06:17:09;17.70;99.90
19906;DHT22;10115;50.906;4.438;2022-07-22T06:19:35;18.00;99.90
19906;DHT22;10115;50.906;4.438;2022-07-22T06:22:00;18.30;99.90
19906;DHT22;10115;50.906;4.438;2022-07-22T06:24:26;18.50;99.90
19906;DHT22;10115;50.906;4.438;2022-07-22T06:26:52;18.80;99.90
19906;DHT22;10115;50.906;4.438;2022-07-22T06:29:18;19.10;99.90
19906;DHT22;10115;50.906;4.438;2022-07-22T06:31:43;19.20;99.90
19906;DHT22;10115;50.906;4.438;2022-07-22T06:34:09;19.30;99.90
19906;DHT22;10115;50.906;4.438;2022-07-22T06:36:35;18.90;99.90
19906;DHT22;10115;50.906;4.438;2022-07-22T06:39:00;18.70;99.90
19906;DHT22;10115;50.906;4.438;2022-07-22T06:41:26;18.50;99.90
19906;DHT22;10115;50.906;4.438;2022-07-22T06:43:52;18.60;99.90
19906;DHT22;10115;50.906;4.438;2022-07-22T06:46:18;18.70;99.90
19906;DHT22;10115;50.906;4.438;2022-07-22T06:48:44;18.70;99.90
19906;DHT22;10115;50.906;4.438;2022-07-22T06:51:10;18.80;99.90
19906;DHT22;10115;50.906;4.438;2022-07-22T06:53:36;18.90;99.90
19906;DHT22;10115;50.906;4.438;2022-07-22T06:56:01;18.90;99.90
19906;DHT22;10115;50.906;4.438;2022-07-22T06:58:27;18.90;99.90
19906;DHT22;10115;50.906;4.438;2022-07-22T07:00:53;19.00;99.90
19906;DHT22;10115;50.906;4.438;2022-07-22T07:03:18;19.00;99.90
19906;DHT22;10115;50.906;4.438;2022-07-22T07:05:44;19.40;99.90
19906;DHT22;10115;50.906;4.438;2022-07-22T07:08:10;19.50;99.90
19906;DHT22;10115;50.906;4.438;2022-07-22T07:10:36;19.40;99.90
19906;DHT22;10115;50.906;4.438;2022-07-22T07:13:01;19.50;99.90
19906;DHT22;10115;50.906;4.438;2022-07-22T07:15:27;19.40;99.90
19906;DHT22;10115;50.906;4.438;2022-07-22T07:17:55;19.70;99.90
19906;DHT22;10115;50.906;4.438;2022-07-22T07:20:22;19.40;99.90
19906;DHT22;10115;50.906;4.438;2022-07-22T07:22:48;19.50;99.90
19906;DHT22;10115;50.906;4.438;2022-07-22T07:25:14;19.40;99.90
19906;DHT22;10115;50.906;4.438;2022-07-22T07:27:40;19.40;99.90
19906;DHT22;10115;50.906;4.438;2022-07-22T07:30:07;19.50;99.90
19906;DHT22;10115;50.906;4.438;2022-07-22T07:32:35;19.70;99.90
19906;DHT22;10115;50.906;4.438;2022-07-22T07:35:02;19.80;99.90
19906;DHT22;10115;50.906;4.438;2022-07-22T07:37:27;19.80;99.90
19906;DHT22;10115;50.906;4.438;2022-07-22T07:39:53;19.90;99.90
19906;DHT22;10115;50.906;4.438;2022-07-22T07:42:19;20.00;99.90
19906;DHT22;10115;50.906;4.438;2022-07-22T07:44:45;20.00;99.90
19906;DHT22;10115;50.906;4.438;2022-07-22T07:47:10;20.40;99.90
19906;DHT22;10115;50.906;4.438;2022-07-22T07:49:37;20.60;99.90
19906;DHT22;10115;50.906;4.438;2022-07-22T07:52:03;20.90;99.90
19906;DHT22;10115;50.906;4.438;2022-07-22T07:54:29;20.80;99.90
19906;DHT22;10115;50.906;4.438;2022-07-22T07:56:54;20.60;99.90
19906;DHT22;10115;50.906;4.438;2022-07-22T07:59:20;20.70;99.90
19906;DHT22;10115;50.906;4.438;2022-07-22T08:01:46;20.80;99.90
19906;DHT22;10115;50.906;4.438;2022-07-22T08:04:11;20.90;99.90
19906;DHT22;10115;50.906;4.438;2022-07-22T08:06:37;20.70;99.90
19906;DHT22;10115;50.906;4.438;2022-07-22T08:09:04;20.60;99.90
19906;DHT22;10115;50.906;4.438;2022-07-22T08:11:29;20.70;99.90
19906;DHT22;10115;50.906;4.438;2022-07-22T08:13:55;20.40;99.90
19906;DHT22;10115;50.906;4.438;2022-07-22T08:16:20;20.40;99.90
19906;DHT22;10115;50.906;4.438;2022-07-22T08:18:46;20.50;99.90
19906;DHT22;10115;50.906;4.438;2022-07-22T08:21:12;20.20;99.90
19906;DHT22;10115;50.906;4.438;2022-07-22T08:23:37;20.10;99.90
19906;DHT22;10115;50.906;4.438;2022-07-22T08:26:03;20.10;99.90
19906;DHT22;10115;50.906;4.438;2022-07-22T08:28:29;19.90;99.90
19906;DHT22;10115;50.906;4.438;2022-07-22T08:30:54;20.00;99.90
19906;DHT22;10115;50.906;4.438;2022-07-22T08:33:20;20.10;99.90
19906;DHT22;10115;50.906;4.438;2022-07-22T08:35:46;20.50;99.90
19906;DHT22;10115;50.906;4.438;2022-07-22T08:38:12;20.90;99.90
19906;DHT22;10115;50.906;4.438;2022-07-22T08:40:37;21.20;99.90
19906;DHT22;10115;50.906;4.438;2022-07-22T08:43:03;20.90;99.90
19906;DHT22;10115;50.906;4.438;2022-07-22T08:45:30;20.50;99.90
19906;DHT22;10115;50.906;4.438;2022-07-22T08:47:56;20.30;99.90
19906;DHT22;10115;50.906;4.438;2022-07-22T08:50:22;20.10;99.90
19906;DHT22;10115;50.906;4.438;2022-07-22T08:52:48;20.20;99.90
19906;DHT22;10115;50.906;4.438;2022-07-22T08:55:14;20.20;99.90
19906;DHT22;10115;50.906;4.438;2022-07-22T08:57:47;20.20;99.90
19906;DHT22;10115;50.906;4.438;2022-07-22T09:00:16;20.40;99.90
19906;DHT22;10115;50.906;4.438;2022-07-22T09:02:43;20.40;99.90
19906;DHT22;10115;50.906;4.438;2022-07-22T09:05:10;20.40;99.90
19906;DHT22;10115;50.906;4.438;2022-07-22T09:07:38;20.70;99.90
19906;DHT22;10115;50.906;4.438;2022-07-22T09:10:07;21.20;99.90
19906;DHT22;10115;50.906;4.438;2022-07-22T09:12:33;21.80;99.90
19906;DHT22;10115;50.906;4.438;2022-07-22T09:15:01;21.90;99.90
19906;DHT22;10115;50.906;4.438;2022-07-22T09:17:30;21.80;99.90
19906;DHT22;10115;50.906;4.438;2022-07-22T09:19:58;21.80;99.90
19906;DHT22;10115;50.906;4.438;2022-07-22T09:22:41;21.70;99.90
19906;DHT22;10115;50.906;4.438;2022-07-22T09:25:30;22.10;99.90
19906;DHT22;10115;50.906;4.438;2022-07-22T09:30:46;22.90;99.90
19906;DHT22;10115;50.906;4.438;2022-07-22T09:33:12;23.40;99.90
19906;DHT22;10115;50.906;4.438;2022-07-22T09:35:39;23.00;99.90
19906;DHT22;10115;50.906;4.438;2022-07-22T09:38:07;23.20;99.90
19906;DHT22;10115;50.906;4.438;2022-07-22T09:40:35;23.50;99.90
19906;DHT22;10115;50.906;4.438;2022-07-22T09:43:04;23.10;99.90
19906;DHT22;10115;50.906;4.438;2022-07-22T09:45:31;23.10;99.90
19906;DHT22;10115;50.906;4.438;2022-07-22T09:47:58;23.20;99.90
19906;DHT22;10115;50.906;4.438;2022-07-22T09:50:32;23.00;99.90
19906;DHT22;10115;50.906;4.438;2022-07-22T09:52:59;23.20;99.90
19906;DHT22;10115;50.906;4.438;2022-07-22T09:55:27;22.30;99.90
19906;DHT22;10115;50.906;4.438;2022-07-22T09:57:55;22.60;99.90
19906;DHT22;10115;50.906;4.438;2022-07-22T10:00:27;23.20;99.90
19906;DHT22;10115;50.906;4.438;2022-07-22T10:02:58;23.40;99.90
19906;DHT22;10115;50.906;4.438;2022-07-22T10:05:26;23.20;99.90
19906;DHT22;10115;50.906;4.438;2022-07-22T10:07:53;23.70;99.90
19906;DHT22;10115;50.906;4.438;2022-07-22T10:10:22;23.20;99.90
19906;DHT22;10115;50.906;4.438;2022-07-22T10:12:49;23.50;99.90
19906;DHT22;10115;50.906;4.438;2022-07-22T10:15:15;23.20;99.90
19906;DHT22;10115;50.906;4.438;2022-07-22T10:17:46;23.20;99.90
19906;DHT22;10115;50.906;4.438;2022-07-22T10:20:17;23.00;99.90
19906;DHT22;10115;50.906;4.438;2022-07-22T10:22:49;23.00;99.90
19906;DHT22;10115;50.906;4.438;2022-07-22T10:25:16;23.20;99.90
19906;DHT22;10115;50.906;4.438;2022-07-22T10:27:48;23.00;99.90
19906;DHT22;10115;50.906;4.438;2022-07-22T10:30:16;23.00;99.90
19906;DHT22;10115;50.906;4.438;2022-07-22T10:32:42;23.50;99.90
19906;DHT22;10115;50.906;4.438;2022-07-22T10:40:24;24.10;99.90
19906;DHT22;10115;50.906;4.438;2022-07-22T10:43:11;24.50;99.90
19906;DHT22;10115;50.906;4.438;2022-07-22T10:48:08;24.40;99.90
19906;DHT22;10115;50.906;4.438;2022-07-22T10:55:39;23.90;99.90
19906;DHT22;10115;50.906;4.438;2022-07-22T11:01:02;24.10;99.90
19906;DHT22;10115;50.906;4.438;2022-07-22T11:03:32;24.90;99.90
19906;DHT22;10115;50.906;4.438;2022-07-22T11:06:37;25.40;99.90
19906;DHT22;10115;50.906;4.438;2022-07-22T11:09:08;24.60;99.90
19906;DHT22;10115;50.906;4.438;2022-07-22T11:11:43;24.40;99.90
19906;DHT22;10115;50.906;4.438;2022-07-22T11:16:42;24.40;99.90
19906;DHT22;10115;50.906;4.438;2022-07-22T11:19:09;24.20;99.90
19906;DHT22;10115;50.906;4.438;2022-07-22T11:21:35;24.10;99.90
19906;DHT22;10115;50.906;4.438;2022-07-22T11:24:02;24.10;99.90
19906;DHT22;10115;50.906;4.438;2022-07-22T11:26:39;24.40;99.90
19906;DHT22;10115;50.906;4.438;2022-07-22T11:29:06;24.20;99.90
19906;DHT22;10115;50.906;4.438;2022-07-22T11:31:32;24.30;99.90
19906;DHT22;10115;50.906;4.438;2022-07-22T11:34:18;24.60;99.90
19906;DHT22;10115;50.906;4.438;2022-07-22T11:36:46;24.60;99.90
19906;DHT22;10115;50.906;4.438;2022-07-22T11:39:13;24.10;99.90
19906;DHT22;10115;50.906;4.438;2022-07-22T11:41:40;24.20;99.90
19906;DHT22;10115;50.906;4.438;2022-07-22T11:44:07;24.30;99.90
19906;DHT22;10115;50.906;4.438;2022-07-22T11:46:38;24.50;99.90
19906;DHT22;10115;50.906;4.438;2022-07-22T11:49:04;24.50;99.90
19906;DHT22;10115;50.906;4.438;2022-07-22T11:51:31;24.40;99.90
19906;DHT22;10115;50.906;4.438;2022-07-22T11:53:58;24.10;99.90
19906;DHT22;10115;50.906;4.438;2022-07-22T11:56:24;24.10;99.90
19906;DHT22;10115;50.906;4.438;2022-07-22T11:58:50;24.50;99.90
19906;DHT22;10115;50.906;4.438;2022-07-22T12:01:21;25.30;99.90
19906;DHT22;10115;50.906;4.438;2022-07-22T12:03:50;24.80;99.90
19906;DHT22;10115;50.906;4.438;2022-07-22T12:06:18;25.10;99.90
19906;DHT22;10115;50.906;4.438;2022-07-22T12:08:45;25.30;99.90
19906;DHT22;10115;50.906;4.438;2022-07-22T12:11:14;25.80;99.90
19906;DHT22;10115;50.906;4.438;2022-07-22T12:13:42;25.50;99.90
19906;DHT22;10115;50.906;4.438;2022-07-22T12:16:22;25.00;99.90
19906;DHT22;10115;50.906;4.438;2022-07-22T12:21:18;25.20;99.90
19906;DHT22;10115;50.906;4.438;2022-07-22T12:23:53;25.10;99.90
19906;DHT22;10115;50.906;4.438;2022-07-22T12:26:19;25.30;99.90
19906;DHT22;10115;50.906;4.438;2022-07-22T12:29:20;25.90;99.90
19906;DHT22;10115;50.906;4.438;2022-07-22T12:31:53;25.20;99.90
19906;DHT22;10115;50.906;4.438;2022-07-22T12:36:57;25.40;99.90
19906;DHT22;10115;50.906;4.438;2022-07-22T12:39:23;24.90;99.90
19906;DHT22;10115;50.906;4.438;2022-07-22T12:41:51;25.30;99.90
19906;DHT22;10115;50.906;4.438;2022-07-22T12:44:25;25.10;99.90
19906;DHT22;10115;50.906;4.438;2022-07-22T12:46:54;25.30;99.90
19906;DHT22;10115;50.906;4.438;2022-07-22T12:49:23;25.50;99.90
19906;DHT22;10115;50.906;4.438;2022-07-22T12:52:11;25.70;99.90
19906;DHT22;10115;50.906;4.438;2022-07-22T12:54:39;26.30;99.90
19906;DHT22;10115;50.906;4.438;2022-07-22T12:57:06;26.80;99.90
19906;DHT22;10115;50.906;4.438;2022-07-22T12:59:32;27.00;99.90
19906;DHT22;10115;50.906;4.438;2022-07-22T13:01:59;26.80;99.90
19906;DHT22;10115;50.906;4.438;2022-07-22T13:04:24;26.60;99.90
19906;DHT22;10115;50.906;4.438;2022-07-22T13:06:50;26.90;99.90
19906;DHT22;10115;50.906;4.438;2022-07-22T13:09:16;26.10;99.90
19906;DHT22;10115;50.906;4.438;2022-07-22T13:11:42;26.30;99.90
19906;DHT22;10115;50.906;4.438;2022-07-22T13:14:13;26.40;99.90
19906;DHT22;10115;50.906;4.438;2022-07-22T13:16:39;27.00;99.90
19906;DHT22;10115;50.906;4.438;2022-07-22T13:19:05;27.60;99.90
19906;DHT22;10115;50.906;4.438;2022-07-22T13:21:31;27.70;99.90
19906;DHT22;10115;50.906;4.438;2022-07-22T13:23:57;28.00;99.90
19906;DHT22;10115;50.906;4.438;2022-07-22T13:26:23;28.30;99.90
19906;DHT22;10115;50.906;4.438;2022-07-22T13:28:51;28.40;99.90
19906;DHT22;10115;50.906;4.438;2022-07-22T13:31:17;28.00;99.90
19906;DHT22;10115;50.906;4.438;2022-07-22T13:33:42;27.70;99.90
19906;DHT22;10115;50.906;4.438;2022-07-22T13:36:08;27.50;99.90
19906;DHT22;10115;50.906;4.438;2022-07-22T13:38:34;27.00;99.90
19906;DHT22;10115;50.906;4.438;2022-07-22T13:40:59;26.60;99.90
19906;DHT22;10115;50.906;4.438;2022-07-22T13:43:25;26.40;99.90
19906;DHT22;10115;50.906;4.438;2022-07-22T13:45:52;25.80;99.90
19906;DHT22;10115;50.906;4.438;2022-07-22T13:48:18;25.70;99.90
19906;DHT22;10115;50.906;4.438;2022-07-22T13:50:45;25.50;99.90
19906;DHT22;10115;50.906;4.438;2022-07-22T13:53:11;25.50;99.90
19906;DHT22;10115;50.906;4.438;2022-07-22T13:55:38;25.30;99.90
19906;DHT22;10115;50.906;4.438;2022-07-22T13:58:05;25.50;99.90
19906;DHT22;10115;50.906;4.438;2022-07-22T14:00:31;25.90;99.90
19906;DHT22;10115;50.906;4.438;2022-07-22T14:02:57;26.00;99.90
19906;DHT22;10115;50.906;4.438;2022-07-22T14:05:23;26.50;99.90
19906;DHT22;10115;50.906;4.438;2022-07-22T14:07:49;27.20;99.90
19906;DHT22;10115;50.906;4.438;2022-07-22T14:10:14;27.10;99.90
19906;DHT22;10115;50.906;4.438;2022-07-22T14:12:40;27.10;99.90
19906;DHT22;10115;50.906;4.438;2022-07-22T14:15:07;26.90;99.90
19906;DHT22;10115;50.906;4.438;2022-07-22T14:17:33;26.80;99.90
19906;DHT22;10115;50.906;4.438;2022-07-22T14:19:59;26.50;99.90
19906;DHT22;10115;50.906;4.438;2022-07-22T14:22:25;25.70;99.90
19906;DHT22;10115;50.906;4.438;2022-07-22T14:24:50;25.50;99.90
19906;DHT22;10115;50.906;4.438;2022-07-22T14:27:16;25.40;99.90
19906;DHT22;10115;50.906;4.438;2022-07-22T14:29:42;25.40;99.90
19906;DHT22;10115;50.906;4.438;2022-07-22T14:32:08;25.40;99.90
19906;DHT22;10115;50.906;4.438;2022-07-22T14:34:34;25.30;99.90
19906;DHT22;10115;50.906;4.438;2022-07-22T14:36:59;25.50;99.90
19906;DHT22;10115;50.906;4.438;2022-07-22T14:39:25;25.70;99.90
19906;DHT22;10115;50.906;4.438;2022-07-22T14:41:51;25.80;99.90
19906;DHT22;10115;50.906;4.438;2022-07-22T14:44:16;25.10;99.90
19906;DHT22;10115;50.906;4.438;2022-07-22T14:46:42;24.90;99.90
19906;DHT22;10115;50.906;4.438;2022-07-22T14:49:08;24.60;99.90
19906;DHT22;10115;50.906;4.438;2022-07-22T14:51:34;24.70;99.90
19906;DHT22;10115;50.906;4.438;2022-07-22T14:53:59;25.10;99.90
19906;DHT22;10115;50.906;4.438;2022-07-22T14:56:25;25.20;99.90
19906;DHT22;10115;50.906;4.438;2022-07-22T14:58:51;25.10;99.90
19906;DHT22;10115;50.906;4.438;2022-07-22T15:01:16;25.20;99.90
19906;DHT22;10115;50.906;4.438;2022-07-22T15:03:42;25.50;99.90
19906;DHT22;10115;50.906;4.438;2022-07-22T15:06:08;25.50;99.90
19906;DHT22;10115;50.906;4.438;2022-07-22T15:08:34;25.50;99.90
19906;DHT22;10115;50.906;4.438;2022-07-22T15:11:00;25.10;99.90
19906;DHT22;10115;50.906;4.438;2022-07-22T15:13:27;24.70;99.90
19906;DHT22;10115;50.906;4.438;2022-07-22T15:15:53;24.40;99.90
19906;DHT22;10115;50.906;4.438;2022-07-22T15:18:19;24.40;99.90
19906;DHT22;10115;50.906;4.438;2022-07-22T15:20:44;24.40;99.90
19906;DHT22;10115;50.906;4.438;2022-07-22T15:23:10;24.40;99.90
19906;DHT22;10115;50.906;4.438;2022-07-22T15:25:36;24.50;99.90
19906;DHT22;10115;50.906;4.438;2022-07-22T15:28:03;24.20;99.90
19906;DHT22;10115;50.906;4.438;2022-07-22T15:30:29;24.20;99.90
19906;DHT22;10115;50.906;4.438;2022-07-22T15:32:54;24.70;99.90
19906;DHT22;10115;50.906;4.438;2022-07-22T15:35:20;24.00;99.90
19906;DHT22;10115;50.906;4.438;2022-07-22T15:37:46;23.90;99.90
19906;DHT22;10115;50.906;4.438;2022-07-22T15:40:12;23.60;99.90
19906;DHT22;10115;50.906;4.438;2022-07-22T15:42:38;23.50;99.90
19906;DHT22;10115;50.906;4.438;2022-07-22T15:45:05;23.70;99.90
19906;DHT22;10115;50.906;4.438;2022-07-22T15:47:31;23.70;99.90
19906;DHT22;10115;50.906;4.438;2022-07-22T15:49:57;23.70;99.90
19906;DHT22;10115;50.906;4.438;2022-07-22T15:52:22;23.70;99.90
19906;DHT22;10115;50.906;4.438;2022-07-22T15:54:48;23.70;99.90